Snettisham, United Kingdom
Current Conditions -  °F | °C
As of 11:14 AM on Friday 24 Oct 2014 (Local Time) from EGYM Reporting Station
Broken Clouds Broken Clouds  
Wind Chill: 59°   Ceiling: 1400
Heat Index: 59°   Visibility: 6mi
Dew Point: 55°   Wind: 14mph
Humidity: 88%   Direction: 200°SSW
Pressure: 29.91"   Gusts: NA
Location:  52.88°N, 0.5°E
Report Text: EGYM 241014Z 20012KT 9999 BKN014 BKN080 15/13 Q1013 GRN BECMG BKN010 GRN
Loading
Personal Weather Stations






























Interactive Weather Map
Tropical Storm Tracking
New forecast layout! Learn more

10-Day Weather Forecast

Advertisements
Track Severe Weather on mobile